Aérodrome :
LOGIN :

S'inscrire | Disclaimer

   EN    FR    IT 

 










Légende :    VFR   VFR Marginal   IFR   IFR Intensif   IFR Très Intensif
Visi : 
Plafond : 
>= 8 km
>= 3000ft
5 à 8 km
1000 à 3000 ft
1500m à 5 km
500 à 1000 ft
800 à 1500m
200 à 500 ft
< 800m
< 200 ft
Symboles :   Orages  Brouillard  Fortes neiges  Fortes précipitations  Vent > 20 kt
SIGMETs :   Divers  Orages  Givrage  Turbulence  Onde Orograph.  Cendres Volcan.







- Altitude de l'aérodrome : 645 ft
- Code IATA : DLE
- Voir les cartes d'approche


LFGJ - Dole Tavaux

DERNIER METAR :
  • 222200Z AUTO VRB02KT CAVOK 22/19 Q1016

METARs EXPIRÉS :
  • 222130Z AUTO 17005KT CAVOK 23/19 Q1015
  • 222100Z AUTO 16003KT CAVOK 25/18 Q1015
  • 222030Z AUTO 26003KT CAVOK 28/17 Q1015
  • 222000Z AUTO 24005KT CAVOK 28/18 Q1015
  • 221930Z AUTO 24007KT CAVOK 30/17 Q1015

TAF TAF LFGJ
Valide du 22 à 15h jusqu'au 23 à 00h UTC


221400Z 2215/2224 21010KT 9999 FEW070TCU
PROB30
TEMPO 2215/2217 TS FEW070CB
BECMG 2219/2221 CAVOK
Pas de NOTAMs connus pour ce terrain.



MET'MAP, la Météo Aéronautique d'un coup d'oeil ! - Copyright ORBIFLY Décembre 2007 - Disclaimer

ORBIFLY MET'MAP TEAM :

Programmation & Développement : Alexandra Zaïnal
Conception & Développement : Baudouin d'Aumeries
Co-Programmation & Développement : Marc-Olivier Méhu
Soutien technique & logistique : Manuel Goepfert

Contact : metmap@orbifly.com




SOURCES & CREDITS :

   NOAA